createdAt,value
2022-12-14T00:01:37.998Z,61.76
2022-12-14T00:04:05.643Z,61.61
2022-12-14T00:06:34.637Z,61.53
2022-12-14T00:09:04.795Z,61.53
2022-12-14T00:11:34.005Z,61.32
2022-12-14T00:14:03.356Z,61.32
2022-12-14T00:16:33.795Z,61.39
2022-12-14T00:19:02.179Z,61.54
2022-12-14T00:21:30.076Z,61.68
2022-12-14T00:23:59.203Z,61.45
2022-12-14T00:26:30.619Z,61.66
2022-12-14T00:29:00.766Z,61.43
2022-12-14T00:31:29.898Z,61.44
2022-12-14T00:33:58.089Z,61.18
2022-12-14T00:36:25.848Z,61.46
2022-12-14T00:38:53.554Z,61.46
2022-12-14T00:41:21.289Z,61.20
2022-12-14T00:43:49.275Z,61.29
2022-12-14T00:46:18.217Z,61.17
2022-12-14T00:48:46.564Z,61.17
2022-12-14T00:51:14.503Z,61.27
2022-12-14T00:53:44.016Z,61.27
2022-12-14T00:56:11.971Z,61.11
2022-12-14T00:58:39.865Z,61.00
2022-12-14T01:01:12.996Z,61.10
2022-12-14T01:03:42.400Z,61.04
2022-12-14T01:06:17.464Z,60.76
2022-12-14T01:08:45.351Z,61.08
2022-12-14T01:11:14.143Z,61.20
2022-12-14T01:13:42.401Z,61.16
2022-12-14T01:16:14.401Z,61.12
2022-12-14T01:18:43.540Z,61.13
2022-12-14T01:21:18.998Z,60.77
2022-12-14T01:23:48.574Z,61.01
2022-12-14T01:26:17.673Z,61.01
2022-12-14T01:28:47.613Z,60.86
2022-12-14T01:31:19.342Z,61.04
2022-12-14T01:33:47.993Z,61.04
2022-12-14T01:36:26.076Z,60.93
2022-12-14T01:38:57.806Z,60.93
2022-12-14T01:41:30.636Z,60.90
2022-12-14T01:44:05.998Z,60.70
2022-12-14T01:47:07.385Z,60.83
2022-12-14T01:49:43.264Z,60.83
2022-12-14T01:52:25.466Z,60.86
2022-12-14T01:55:03.318Z,60.94
2022-12-14T01:57:36.509Z,60.61
2022-12-14T02:00:08.483Z,60.77
2022-12-14T02:02:41.479Z,60.90
2022-12-14T02:05:10.853Z,60.56
2022-12-14T02:07:40.803Z,60.67
2022-12-14T02:10:09.848Z,60.67
2022-12-14T02:12:51.518Z,60.60
2022-12-14T02:15:19.732Z,60.65
2022-12-14T02:17:48.473Z,60.34
2022-12-14T02:20:18.382Z,60.34
2022-12-14T02:23:04.423Z,60.23
2022-12-14T02:26:11.898Z,60.58
2022-12-14T02:29:22.943Z,60.55
2022-12-14T02:32:26.798Z,60.60
2022-12-14T02:35:13.916Z,60.62
2022-12-14T02:38:10.279Z,60.55
2022-12-14T02:40:46.813Z,60.41
2022-12-14T02:43:39.746Z,60.56
2022-12-14T02:46:50.217Z,60.37
2022-12-14T02:49:42.750Z,60.69
2022-12-14T02:52:42.037Z,60.45
2022-12-14T02:55:30.057Z,60.39
2022-12-14T02:58:08.993Z,60.69
2022-12-14T03:00:38.275Z,60.69
2022-12-14T03:03:06.760Z,60.23
2022-12-14T03:05:35.847Z,60.34
2022-12-14T03:08:16.193Z,60.55
2022-12-14T03:11:02.527Z,60.47
2022-12-14T03:13:51.013Z,60.33
2022-12-14T03:16:29.438Z,60.41
2022-12-14T03:19:19.205Z,60.47
2022-12-14T03:22:00.710Z,60.36
2022-12-14T03:24:39.335Z,60.59
2022-12-14T03:27:23.972Z,60.46
2022-12-14T03:30:05.737Z,60.44
2022-12-14T03:32:37.626Z,60.24
2022-12-14T03:35:13.398Z,60.33
2022-12-14T03:37:53.085Z,60.63
2022-12-14T03:40:23.648Z,60.39
2022-12-14T03:43:11.267Z,60.30
2022-12-14T03:45:50.533Z,60.44
2022-12-14T03:48:47.581Z,60.12
2022-12-14T03:51:32.817Z,60.12
2022-12-14T03:54:24.193Z,60.35
2022-12-14T03:57:22.743Z,60.14
2022-12-14T03:59:55.655Z,60.31
2022-12-14T04:02:33.976Z,60.27
2022-12-14T04:05:12.154Z,60.28
2022-12-14T04:07:54.461Z,60.07
2022-12-14T04:10:48.581Z,60.18
2022-12-14T04:13:40.367Z,60.36
2022-12-14T04:16:33.433Z,60.31
2022-12-14T04:19:06.535Z,60.35
2022-12-14T04:21:47.962Z,60.14
2022-12-14T04:24:39.188Z,60.53
2022-12-14T04:27:24.031Z,60.57
2022-12-14T04:29:57.803Z,60.66
2022-12-14T04:32:46.141Z,60.81
2022-12-14T04:35:40.065Z,60.88
2022-12-14T04:38:12.929Z,60.78
2022-12-14T04:40:48.827Z,60.64
2022-12-14T04:43:23.787Z,60.67
2022-12-14T04:46:11.400Z,60.59
2022-12-14T04:48:57.095Z,60.58
2022-12-14T04:51:53.118Z,60.32
2022-12-14T04:54:40.518Z,60.20
2022-12-14T04:57:47.087Z,60.20
2022-12-14T05:00:15.881Z,60.07
2022-12-14T05:03:17.818Z,60.00
2022-12-14T05:05:59.109Z,60.10
2022-12-14T05:08:52.939Z,60.32
2022-12-14T05:11:54.920Z,60.34
2022-12-14T05:14:33.947Z,60.53
2022-12-14T05:17:08.797Z,60.64
2022-12-14T05:19:34.745Z,60.67
2022-12-14T05:22:07.900Z,60.63
2022-12-14T05:24:35.942Z,60.62
2022-12-14T05:27:03.763Z,60.81
2022-12-14T05:29:31.685Z,60.81
2022-12-14T05:32:00.005Z,60.92
2022-12-14T05:34:27.945Z,61.02
2022-12-14T05:36:55.254Z,60.87
2022-12-14T05:39:22.940Z,60.94
2022-12-14T05:41:50.554Z,61.12
2022-12-14T05:44:18.040Z,61.33
2022-12-14T05:46:46.051Z,61.49
2022-12-14T05:49:13.759Z,61.69
2022-12-14T05:51:41.552Z,61.81
2022-12-14T05:54:09.230Z,61.71
2022-12-14T05:56:37.023Z,61.66
2022-12-14T05:59:04.593Z,61.58
2022-12-14T06:01:32.426Z,61.39
2022-12-14T06:04:00.160Z,61.28
2022-12-14T06:06:27.877Z,61.34
2022-12-14T06:08:55.810Z,61.17
2022-12-14T06:11:23.821Z,61.09
2022-12-14T06:13:51.806Z,60.99
2022-12-14T06:16:26.142Z,60.80
2022-12-14T06:18:57.710Z,60.81
2022-12-14T06:21:32.717Z,61.11
2022-12-14T06:24:01.144Z,61.07
2022-12-14T06:26:30.962Z,61.07
2022-12-14T06:28:59.559Z,61.13
2022-12-14T06:31:32.499Z,61.05
2022-12-14T06:34:02.521Z,60.98
2022-12-14T06:36:34.631Z,60.93
2022-12-14T06:39:06.993Z,61.06
2022-12-14T06:41:35.121Z,61.17
2022-12-14T06:44:06.540Z,61.24
2022-12-14T06:46:35.467Z,61.24
2022-12-14T06:49:07.847Z,61.01
2022-12-14T06:51:40.033Z,61.01
2022-12-14T06:54:10.416Z,61.17
2022-12-14T06:56:40.172Z,61.30
2022-12-14T06:59:08.803Z,61.35
2022-12-14T07:01:38.100Z,61.39
2022-12-14T07:04:07.622Z,61.38
2022-12-14T07:06:39.974Z,61.35
2022-12-14T07:09:11.732Z,61.28
2022-12-14T07:11:39.903Z,61.16
2022-12-14T07:14:07.788Z,60.81
2022-12-14T07:16:36.475Z,60.71
2022-12-14T07:19:04.497Z,60.26
2022-12-14T07:21:33.345Z,60.63
2022-12-14T07:24:01.288Z,60.63
2022-12-14T07:26:30.134Z,60.85
2022-12-14T07:29:01.043Z,60.50
2022-12-14T07:31:29.326Z,60.50
2022-12-14T07:33:59.781Z,60.86
2022-12-14T07:36:30.126Z,60.85
2022-12-14T07:38:58.288Z,60.78
2022-12-14T07:41:31.259Z,60.64
2022-12-14T07:44:00.900Z,60.71
2022-12-14T07:46:31.503Z,61.05
2022-12-14T07:49:00.728Z,60.97
2022-12-14T07:51:32.671Z,60.74
2022-12-14T07:54:03.482Z,61.21
2022-12-14T07:56:35.414Z,61.29
2022-12-14T07:59:07.791Z,61.07
2022-12-14T08:01:37.155Z,60.89
2022-12-14T08:04:11.527Z,61.18
2022-12-14T08:06:40.677Z,61.18
2022-12-14T08:09:10.930Z,60.80
2022-12-14T08:11:39.578Z,60.94
2022-12-14T08:14:11.937Z,61.02
2022-12-14T08:16:39.717Z,60.80
2022-12-14T08:19:07.573Z,60.97
2022-12-14T08:21:35.426Z,60.69
2022-12-14T08:24:04.323Z,60.69
2022-12-14T08:26:35.805Z,60.71
2022-12-14T08:29:02.053Z,60.81
2022-12-14T08:31:30.678Z,60.81
2022-12-14T08:34:00.193Z,60.24
2022-12-14T08:36:32.147Z,60.05
2022-12-14T08:39:04.306Z,60.37
2022-12-14T08:41:32.451Z,60.21
2022-12-14T08:44:02.347Z,60.38
2022-12-14T08:46:33.097Z,60.58
2022-12-14T08:49:01.366Z,60.72
2022-12-14T08:51:29.617Z,60.81
2022-12-14T08:53:57.967Z,60.63
2022-12-14T08:56:28.072Z,60.82
2022-12-14T08:58:56.970Z,60.12
2022-12-14T09:01:33.557Z,60.51
2022-12-14T09:04:08.523Z,59.75
2022-12-14T09:06:38.887Z,59.63
2022-12-14T09:09:15.241Z,59.47
2022-12-14T09:11:37.776Z,59.42
2022-12-14T09:14:05.401Z,59.48
2022-12-14T09:16:33.480Z,59.37
2022-12-14T09:19:01.123Z,59.01
2022-12-14T09:21:28.858Z,58.21
2022-12-14T09:23:59.651Z,57.62
2022-12-14T09:26:26.265Z,57.82
2022-12-14T09:28:56.944Z,58.24
2022-12-14T09:31:27.174Z,57.27
2022-12-14T09:33:55.597Z,57.85
2022-12-14T09:36:28.793Z,58.02
2022-12-14T09:38:57.127Z,58.01
2022-12-14T09:41:42.347Z,58.22
2022-12-14T09:44:47.693Z,58.20
2022-12-14T09:47:36.094Z,58.26
2022-12-14T09:50:08.959Z,58.27
2022-12-14T09:52:46.824Z,58.18
2022-12-14T09:55:40.588Z,58.40
2022-12-14T09:58:25.153Z,58.53
2022-12-14T10:01:22.468Z,58.67
2022-12-14T10:04:01.214Z,58.83
2022-12-14T10:06:57.567Z,58.50
2022-12-14T10:10:03.288Z,58.22
2022-12-14T10:12:56.910Z,57.95
2022-12-14T10:16:05.857Z,57.96
2022-12-14T10:18:59.898Z,58.54
2022-12-14T10:21:36.427Z,58.81
2022-12-14T10:24:06.307Z,58.53
2022-12-14T10:26:42.229Z,58.32
2022-12-14T10:29:32.881Z,58.34
2022-12-14T10:32:08.930Z,58.43
2022-12-14T10:34:40.192Z,58.54
2022-12-14T10:37:16.341Z,57.92
2022-12-14T10:40:17.435Z,57.77
2022-12-14T10:43:23.269Z,57.78
2022-12-14T10:46:01.248Z,58.08
2022-12-14T10:48:40.660Z,57.77
2022-12-14T10:51:19.803Z,58.32
2022-12-14T10:54:04.479Z,57.46
2022-12-14T10:56:34.850Z,57.62
2022-12-14T10:59:23.474Z,58.19
2022-12-14T11:02:25.424Z,58.25
2022-12-14T11:05:03.575Z,57.96
2022-12-14T11:07:39.058Z,57.85
2022-12-14T11:10:30.238Z,57.84
2022-12-14T11:13:20.461Z,57.81
2022-12-14T11:15:53.654Z,57.73
2022-12-14T11:18:31.161Z,57.43
2022-12-14T11:21:03.364Z,56.77
2022-12-14T11:23:42.213Z,56.87
2022-12-14T11:26:14.968Z,57.35
2022-12-14T11:28:52.422Z,57.39
2022-12-14T11:31:39.201Z,57.22
2022-12-14T11:34:22.261Z,56.92
2022-12-14T11:36:50.211Z,56.86
2022-12-14T11:39:25.118Z,56.88
2022-12-14T11:42:02.651Z,56.69
2022-12-14T11:44:36.198Z,56.78
2022-12-14T11:47:15.915Z,56.82
2022-12-14T11:49:48.992Z,56.78
2022-12-14T11:52:42.753Z,56.69
2022-12-14T11:55:26.707Z,56.69
2022-12-14T11:57:58.445Z,56.10
2022-12-14T12:00:46.969Z,56.00
2022-12-14T12:03:21.105Z,55.64
2022-12-14T12:05:50.621Z,56.42
2022-12-14T12:08:28.589Z,56.00
2022-12-14T12:11:02.140Z,56.38
2022-12-14T12:13:38.928Z,56.21
2022-12-14T12:16:17.152Z,56.39
2022-12-14T12:19:12.361Z,56.37
2022-12-14T12:21:45.043Z,56.46
2022-12-14T12:24:30.420Z,56.32
2022-12-14T12:27:02.398Z,56.02
2022-12-14T12:29:37.101Z,56.14
2022-12-14T12:32:19.524Z,56.32
2022-12-14T12:35:12.314Z,56.44
2022-12-14T12:38:06.854Z,56.31
2022-12-14T12:41:01.913Z,56.45
2022-12-14T12:43:43.501Z,56.17
2022-12-14T12:46:17.301Z,56.59
2022-12-14T12:49:08.143Z,56.59
2022-12-14T12:51:56.043Z,56.16
2022-12-14T12:54:52.585Z,56.39
2022-12-14T12:57:21.392Z,55.88
2022-12-14T12:59:53.295Z,56.04
2022-12-14T13:02:38.036Z,56.21
2022-12-14T13:05:44.367Z,55.74
2022-12-14T13:07:52.600Z,56.04
2022-12-14T13:10:28.000Z,56.16
2022-12-14T13:13:09.919Z,56.18
2022-12-14T13:15:49.076Z,56.38
2022-12-14T13:18:59.538Z,56.32
2022-12-14T13:21:31.920Z,56.48
2022-12-14T13:23:59.649Z,56.55
2022-12-14T13:29:16.716Z,56.40
2022-12-14T13:32:24.875Z,56.50
2022-12-14T13:35:32.477Z,56.33
2022-12-14T13:38:33.960Z,56.16
2022-12-14T13:41:36.006Z,56.35
2022-12-14T13:44:35.766Z,56.24
2022-12-14T13:47:06.432Z,56.57
2022-12-14T13:49:35.718Z,56.37
2022-12-14T13:52:03.582Z,56.54
2022-12-14T13:54:37.800Z,56.54
2022-12-14T13:57:15.780Z,56.46
2022-12-14T13:59:51.667Z,56.56
2022-12-14T14:02:34.457Z,56.46
2022-12-14T14:05:20.998Z,56.47
2022-12-14T14:08:33.267Z,56.57
2022-12-14T14:11:13.954Z,56.65
2022-12-14T14:13:32.342Z,56.76
2022-12-14T14:16:27.858Z,56.87
2022-12-14T14:18:54.031Z,56.77
2022-12-14T14:21:29.574Z,56.95
2022-12-14T14:24:17.247Z,56.70
2022-12-14T14:27:11.268Z,57.09
2022-12-14T14:29:50.386Z,57.08
2022-12-14T14:32:39.292Z,57.25
2022-12-14T14:35:24.409Z,57.23
2022-12-14T14:38:01.921Z,57.47
2022-12-14T14:41:06.713Z,57.28
2022-12-14T14:43:07.389Z,57.51
2022-12-14T14:45:48.954Z,57.33
2022-12-14T14:48:36.897Z,57.28
2022-12-14T14:51:24.690Z,57.49
2022-12-14T14:54:56.142Z,57.52
2022-12-14T14:56:53.038Z,57.57
2022-12-14T14:59:31.589Z,57.58
2022-12-14T15:02:03.582Z,57.54
2022-12-14T15:04:47.544Z,57.47
2022-12-14T15:07:23.351Z,57.60
2022-12-14T15:10:27.781Z,57.86
2022-12-14T15:12:58.774Z,57.92
2022-12-14T15:15:40.632Z,58.32
2022-12-14T15:18:28.285Z,58.22
2022-12-14T15:21:09.703Z,58.58
2022-12-14T15:23:52.760Z,58.81
2022-12-14T15:26:27.943Z,58.75
2022-12-14T15:28:59.960Z,58.99
2022-12-14T15:31:32.459Z,58.84
2022-12-14T15:34:01.570Z,58.99
2022-12-14T15:36:37.456Z,58.99
2022-12-14T15:39:05.778Z,58.97
2022-12-14T15:41:33.722Z,58.85
2022-12-14T15:44:01.657Z,58.88
2022-12-14T15:46:35.266Z,58.87
2022-12-14T15:49:07.349Z,58.93
2022-12-14T15:51:44.146Z,58.93
2022-12-14T15:54:18.859Z,59.00
2022-12-14T15:56:58.101Z,58.98
2022-12-14T15:59:31.857Z,59.07
2022-12-14T16:02:17.144Z,59.03
2022-12-14T16:04:46.043Z,58.96
2022-12-14T16:07:24.338Z,59.01
2022-12-14T16:09:58.935Z,58.98
2022-12-14T16:12:48.766Z,58.98
2022-12-14T16:15:20.265Z,58.95
2022-12-14T16:17:50.197Z,59.19
2022-12-14T16:20:29.195Z,59.18
2022-12-14T16:23:20.518Z,59.28
2022-12-14T16:25:59.625Z,59.31
2022-12-14T16:28:32.249Z,59.15
2022-12-14T16:31:07.561Z,59.19
2022-12-14T16:33:39.332Z,59.22
2022-12-14T16:36:16.889Z,59.07
2022-12-14T16:39:07.448Z,59.01
2022-12-14T16:41:57.979Z,58.86
2022-12-14T16:44:37.804Z,58.81
2022-12-14T16:47:17.086Z,58.96
2022-12-14T16:49:59.342Z,58.87
2022-12-14T16:52:32.670Z,58.89
2022-12-14T16:55:14.220Z,59.14
2022-12-14T16:57:55.257Z,59.08
2022-12-14T17:00:29.853Z,58.99
2022-12-14T17:03:22.498Z,59.23
2022-12-14T17:05:54.632Z,59.10
2022-12-14T17:08:22.319Z,59.31
2022-12-14T17:10:50.407Z,59.19
2022-12-14T17:13:18.026Z,59.10
2022-12-14T17:16:05.490Z,59.22
2022-12-14T17:18:39.415Z,59.16
2022-12-14T17:21:11.572Z,59.14
2022-12-14T17:23:42.257Z,59.03
2022-12-14T17:26:21.207Z,59.02
2022-12-14T17:28:49.798Z,59.30
2022-12-14T17:31:21.967Z,59.40
2022-12-14T17:33:53.339Z,59.51
2022-12-14T17:36:20.834Z,59.41
2022-12-14T17:38:48.427Z,59.63
2022-12-14T17:41:26.806Z,59.51
2022-12-14T17:43:57.235Z,59.75
2022-12-14T17:46:25.767Z,59.82
2022-12-14T17:48:53.519Z,59.99
2022-12-14T17:51:28.702Z,60.04
2022-12-14T17:53:58.058Z,60.04
2022-12-14T17:56:25.497Z,60.03
2022-12-14T17:58:53.706Z,60.21
2022-12-14T18:01:23.949Z,60.21
2022-12-14T18:03:53.899Z,60.11
2022-12-14T18:06:21.825Z,60.15
2022-12-14T18:08:49.593Z,60.14
2022-12-14T18:11:23.026Z,60.11
2022-12-14T18:13:50.402Z,60.11
2022-12-14T18:16:20.741Z,60.18
2022-12-14T18:18:49.219Z,60.25
2022-12-14T18:21:27.577Z,60.12
2022-12-14T18:23:56.341Z,59.95
2022-12-14T18:26:23.900Z,60.03
2022-12-14T18:28:53.966Z,59.99
2022-12-14T18:31:35.611Z,59.92
2022-12-14T18:34:04.408Z,60.06
2022-12-14T18:36:32.254Z,60.03
2022-12-14T18:39:00.690Z,60.08
2022-12-14T18:41:29.261Z,60.22
2022-12-14T18:43:57.119Z,60.42
2022-12-14T18:46:24.704Z,60.35
2022-12-14T18:48:53.124Z,60.47
2022-12-14T18:51:23.448Z,60.62
2022-12-14T18:53:54.780Z,60.75
2022-12-14T18:56:24.764Z,60.84
2022-12-14T18:58:52.322Z,60.95
2022-12-14T19:01:24.170Z,61.14
2022-12-14T19:03:52.167Z,61.29
2022-12-14T19:06:44.900Z,61.42
2022-12-14T19:08:57.072Z,61.42
2022-12-14T19:11:34.966Z,61.57
2022-12-14T19:14:02.509Z,61.42
2022-12-14T19:16:29.886Z,61.24
2022-12-14T19:18:57.859Z,61.17
2022-12-14T19:21:26.185Z,61.00
2022-12-14T19:23:55.166Z,61.03
2022-12-14T19:26:23.356Z,61.08
2022-12-14T19:28:50.751Z,61.04
2022-12-14T19:31:18.266Z,61.05
2022-12-14T19:33:46.244Z,61.03
2022-12-14T19:36:13.890Z,61.07
2022-12-14T19:38:41.285Z,61.17
2022-12-14T19:41:12.934Z,61.11
2022-12-14T19:43:40.861Z,61.15
2022-12-14T19:46:11.115Z,61.19
2022-12-14T19:48:39.983Z,61.32
2022-12-14T19:51:10.755Z,61.35
2022-12-14T19:53:43.772Z,61.50
2022-12-14T19:56:14.228Z,61.58
2022-12-14T19:58:41.723Z,61.57
2022-12-14T20:01:12.367Z,61.61
2022-12-14T20:03:41.185Z,61.54
2022-12-14T20:06:09.006Z,61.42
2022-12-14T20:08:37.294Z,61.40
2022-12-14T20:11:08.696Z,61.50
2022-12-14T20:13:37.090Z,61.56
2022-12-14T20:16:05.952Z,61.54
2022-12-14T20:18:33.523Z,61.67
2022-12-14T20:21:03.601Z,61.66
2022-12-14T20:23:34.807Z,61.71
2022-12-14T20:26:06.565Z,61.73
2022-12-14T20:28:34.315Z,61.80
2022-12-14T20:31:08.035Z,61.87
2022-12-14T20:33:37.208Z,61.90
2022-12-14T20:36:08.453Z,61.96
2022-12-14T20:38:36.396Z,62.05
2022-12-14T20:41:07.880Z,62.12
2022-12-14T20:43:37.602Z,62.27
2022-12-14T20:46:05.628Z,62.25
2022-12-14T20:48:33.341Z,62.36
2022-12-14T20:51:02.749Z,62.36
2022-12-14T20:53:30.949Z,62.43
2022-12-14T20:56:03.748Z,62.49
2022-12-14T20:58:31.668Z,62.50
2022-12-14T21:01:08.292Z,62.63
2022-12-14T21:03:36.878Z,62.65
2022-12-14T21:06:06.077Z,62.77
2022-12-14T21:08:38.826Z,62.93
2022-12-14T21:11:25.094Z,63.10
2022-12-14T21:13:53.773Z,63.24
2022-12-14T21:16:21.639Z,63.32
2022-12-14T21:18:49.650Z,63.40
2022-12-14T21:21:17.262Z,63.47
2022-12-14T21:23:44.765Z,63.53
2022-12-14T21:26:12.680Z,63.54
2022-12-14T21:28:40.265Z,63.49
2022-12-14T21:31:10.919Z,63.42
2022-12-14T21:33:38.483Z,63.36
2022-12-14T21:36:08.114Z,63.25
2022-12-14T21:38:36.465Z,63.18
2022-12-14T21:41:23.739Z,63.20
2022-12-14T21:43:52.763Z,63.08
2022-12-14T21:46:20.645Z,62.83
2022-12-14T21:48:48.700Z,62.61
2022-12-14T21:51:18.346Z,62.56
2022-12-14T21:53:58.537Z,62.38
2022-12-14T21:56:56.887Z,61.93
2022-12-14T21:59:35.855Z,61.85
2022-12-14T22:02:08.671Z,61.85
2022-12-14T22:04:39.786Z,61.87
2022-12-14T22:07:05.690Z,61.94
2022-12-14T22:09:33.116Z,61.90
2022-12-14T22:12:00.315Z,61.87
2022-12-14T22:14:27.986Z,61.79
2022-12-14T22:16:55.449Z,61.68
2022-12-14T22:19:24.956Z,61.70
2022-12-14T22:21:55.620Z,61.63
2022-12-14T22:24:23.885Z,61.57
2022-12-14T22:26:52.211Z,61.74
2022-12-14T22:29:21.646Z,61.84
2022-12-14T22:31:50.833Z,61.83
2022-12-14T22:34:22.380Z,61.80
2022-12-14T22:36:52.556Z,61.86
2022-12-14T22:39:20.302Z,61.88
2022-12-14T22:41:49.199Z,61.88
2022-12-14T22:44:16.612Z,61.80
2022-12-14T22:46:44.148Z,61.72
2022-12-14T22:49:16.349Z,61.64
2022-12-14T22:51:44.896Z,61.66
2022-12-14T22:54:23.658Z,61.69
2022-12-14T22:57:02.533Z,61.65
2022-12-14T22:59:38.473Z,61.56
2022-12-14T23:02:06.419Z,61.54
2022-12-14T23:04:37.110Z,61.52
2022-12-14T23:07:04.960Z,61.63
2022-12-14T23:09:50.669Z,61.67
2022-12-14T23:12:37.073Z,61.63
2022-12-14T23:15:24.736Z,61.55
2022-12-14T23:18:14.874Z,61.59
2022-12-14T23:21:00.826Z,61.66
2022-12-14T23:23:46.612Z,61.76
2022-12-14T23:26:32.919Z,61.75
2022-12-14T23:29:19.234Z,61.70
2022-12-14T23:32:05.155Z,61.72
2022-12-14T23:34:50.900Z,61.79
2022-12-14T23:37:36.650Z,61.74
2022-12-14T23:40:24.597Z,61.82
2022-12-14T23:43:10.787Z,61.86
2022-12-14T23:45:57.229Z,61.91
2022-12-14T23:48:43.048Z,61.92
2022-12-14T23:51:28.955Z,61.98
2022-12-14T23:54:14.548Z,61.96
2022-12-14T23:57:02.373Z,62.08
2022-12-14T23:59:49.605Z,62.10
